Wan Hai 273 — 9V7586 — position and weather

sailwx.info

Track history (hours):
 
Tides and Currents Weather Stations Pressure Air Temp Water Temp Dewpoint Dewpoint Depression Visibility Wind Speed Wind Dir Waves Ship Positions

Wan Hai 273

Last reported at 2015-Aug-02 10:29 UTC. Time now 2015-Aug-04 09:42 UTC.
Position N 16°08' E 108°31'.

Length 172 m; draft 9.7 m.

Type: Cargo ship. MMSI: 566406000.

Date/timePositionNaut miles runAvg speedWind from/ knotsBaromVisibWave heightAir tempDewpointWater temp
2015-Aug-02 10:29N 16°08' E 108°31'1617.4
2015-Aug-02 09:33N 16°11' E 108°14'4 2.2
2015-Aug-02 07:31N 16°07' E 108°13'0 0.0
2015-Aug-02 06:19N 16°07' E 108°13'0 0.0
2015-Aug-02 05:25N 16°07' E 108°13'0 0.0
2015-Aug-02 04:25N 16°07' E 108°13'0 0.0
2015-Aug-02 03:25N 16°07' E 108°13'0 0.1
2015-Aug-02 02:33N 16°07' E 108°13'3 2.8
2015-Aug-02 01:33N 16°10' E 108°12'0 0.0
2015-Aug-02 00:33N 16°10' E 108°12'0 0.1
2015-Aug-01 23:33N 16°10' E 108°12'0 0.0
2015-Aug-01 22:33N 16°10' E 108°12'0 0.1
2015-Aug-01 21:33N 16°10' E 108°12'0 0.0
2015-Aug-01 20:33N 16°10' E 108°12'0 0.0
2015-Aug-01 19:33N 16°10' E 108°12'0 0.0
2015-Aug-01 18:33N 16°10' E 108°12'0 0.1
2015-Aug-01 17:33N 16°10' E 108°12'0 0.0
2015-Aug-01 16:21N 16°10' E 108°12'0 0.0
2015-Aug-01 15:27N 16°10' E 108°12'0 0.0
2015-Aug-01 14:27N 16°10' E 108°12'0 0.1
2015-Aug-01 13:15N 16°10' E 108°12'0 0.0
2015-Aug-01 12:33N 16°10' E 108°12'1 1.2
2015-Aug-01 11:33N 16°11' E 108°13'1312.7
2015-Aug-01 10:33N 16°19' E 108°23'48317.9
2015-Jul-31 07:31N 22°04' E 114°22'1714.6
2015-Jul-31 06:23N 22°14' E 114°08'1111.1
2015-Jul-31 05:25N 22°21' E 113°59'8 9.7
2015-Jul-31 04:33N 22°28' E 113°54'0 0.2
2015-Jul-31 03:31N 22°28' E 113°54'0 0.0
2015-Jul-31 02:31N 22°28' E 113°54'0 0.0
2015-Jul-31 01:31N 22°28' E 113°54'0 0.0
2015-Jul-31 00:31N 22°28' E 113°54'0 0.0
2015-Jul-30 23:31N 22°28' E 113°54'0 0.0
2015-Jul-30 22:25N 22°28' E 113°54'0 0.0
2015-Jul-30 21:31N 22°28' E 113°54'0 0.0
2015-Jul-30 20:19N 22°28' E 113°54'0 0.0
2015-Jul-30 19:31N 22°28' E 113°54'0 0.0
2015-Jul-30 18:25N 22°28' E 113°54'0 0.0
2015-Jul-30 17:31N 22°28' E 113°54'0 0.0
2015-Jul-30 16:31N 22°28' E 113°54'0 0.0
2015-Jul-30 15:31N 22°28' E 113°54'4 3.9
2015-Jul-30 14:33N 22°24' E 113°54'12 5.7
2015-Jul-30 12:31N 22°18' E 114°05'0 0.1
2015-Jul-30 11:31N 22°18' E 114°05'0 0.1
2015-Jul-30 10:28N 22°18' E 114°05'0 0.1
2015-Jul-30 09:28N 22°18' E 114°05'0 0.0
2015-Jul-30 08:31N 22°18' E 114°05'0 0.0
2015-Jul-30 07:22N 22°18' E 114°05'0 0.0
2015-Jul-30 06:31N 22°18' E 114°05'0 0.0
2015-Jul-30 05:28N 22°18' E 114°05'0 0.0
2015-Jul-30 04:31N 22°18' E 114°05'0 0.0
2015-Jul-30 03:31N 22°18' E 114°05'0 0.0
2015-Jul-30 02:28N 22°18' E 114°05'1 1.3
2015-Jul-30 01:33N 22°19' E 114°06'2 1.9
2015-Jul-30 00:24N 22°20' E 114°08'0 0.0
2015-Jul-29 23:21N 22°20' E 114°08'0 0.0
2015-Jul-29 22:33N 22°20' E 114°08'0 0.0
2015-Jul-29 21:33N 22°20' E 114°08'0 0.0
2015-Jul-29 20:33N 22°20' E 114°08'0 0.0
2015-Jul-29 19:27N 22°20' E 114°08'0 0.0
2015-Jul-29 18:33N 22°20' E 114°08'0 0.0
2015-Jul-29 17:33N 22°20' E 114°08'0 0.0
2015-Jul-29 16:33N 22°20' E 114°08'0 0.0
2015-Jul-29 15:24N 22°20' E 114°08'0 0.0
2015-Jul-29 14:27N 22°20' E 114°08'0 0.0
2015-Jul-29 13:30N 22°20' E 114°08'0 0.0
2015-Jul-29 12:30N 22°20' E 114°08'0 0.0
2015-Jul-29 11:27N 22°20' E 114°08'0 0.0
2015-Jul-29 10:30N 22°20' E 114°08'0 0.0
2015-Jul-29 09:32N 22°20' E 114°08'3 2.6
2015-Jul-29 08:34N 22°18' E 114°06'12 9.5
2015-Jul-29 07:15N 22°09' E 114°15'8 9.8
2015-Jul-29 06:25N 22°10' E 114°23'14 4.5
2015-Jul-29 03:21N 22°19' E 114°34'0 0.0
2015-Jul-29 02:33N 22°19' E 114°34'0 0.0
2015-Jul-28 21:24N 22°19' E 114°34'137 9.8
2015-Jul-28 07:24N 22°52' E 116°59'1516.8
2015-Jul-28 06:30N 22°58' E 117°14'5617.1
2015-Jul-28 03:15N 23°28' E 118°05'1416.8
2015-Jul-28 02:26N 23°37' E 118°16'1516.8
2015-Jul-28 01:33N 23°47' E 118°28'1716.3
2015-Jul-28 00:31N 23°59' E 118°40'1615.9
2015-Jul-27 23:31N 24°11' E 118°52'1515.4
2015-Jul-27 22:33N 24°21' E 119°04'1614.9
2015-Jul-27 21:31N 24°33' E 119°15'1414.9
2015-Jul-27 20:34N 24°43' E 119°26'1914.7
2015-Jul-27 19:18N 24°57' E 119°40'1214.7
2015-Jul-27 18:29N 25°05' E 119°49'1615.1
2015-Jul-27 17:24N 25°18' E 120°01'26715.4
2015-Jul-27 00:05N 29°07' E 122°36'2415.0
2015-Jul-26 22:28N 29°29' E 122°47'1515.2
2015-Jul-26 21:28N 29°43' E 122°53'1415.0
2015-Jul-26 20:33N 29°55' E 122°60'1615.5
2015-Jul-26 19:30N 30°11' E 123°06'1515.6
2015-Jul-26 18:33N 30°24' E 123°14'1616.4
2015-Jul-26 17:33N 30°39' E 123°21'1616.2
2015-Jul-26 16:33N 30°55' E 123°23'1716.8
2015-Jul-26 15:34N 31°12' E 123°21'1716.6
2015-Jul-26 14:33N 31°28' E 123°20'1615.7
2015-Jul-26 13:33N 31°44' E 123°15'1615.9
2015-Jul-26 12:33N 31°59' E 123°12'1715.7
2015-Jul-26 11:29N 32°16' E 123°09'1615.4
2015-Jul-26 10:28N 32°31' E 123°06'1415.4
2015-Jul-26 09:34N 32°45' E 123°02'1615.6
2015-Jul-26 08:33N 33°01' E 122°59'  
Track history (hours):
 
Tides and Currents Weather Stations Pressure Air Temp Water Temp Dewpoint Dewpoint Depression Visibility Wind Speed Wind Dir Waves Ship Positions

Wan Hai 273

Last reported at 2015-Aug-02 10:29 UTC. Time now 2015-Aug-04 09:42 UTC.
Position N 16°08' E 108°31'.

Length 172 m; draft 9.7 m.

Type: Cargo ship. MMSI: 566406000.

Date/timePositionNaut miles runAvg speedWind from/ knotsBaromVisibWave heightAir tempDewpointWater temp
2015-Aug-02 10:29N 16°08' E 108°31'1617.4
2015-Aug-02 09:33N 16°11' E 108°14'4 2.2
2015-Aug-02 07:31N 16°07' E 108°13'0 0.0
2015-Aug-02 06:19N 16°07' E 108°13'0 0.0
2015-Aug-02 05:25N 16°07' E 108°13'0 0.0
2015-Aug-02 04:25N 16°07' E 108°13'0 0.0
2015-Aug-02 03:25N 16°07' E 108°13'0 0.1
2015-Aug-02 02:33N 16°07' E 108°13'3 2.8
2015-Aug-02 01:33N 16°10' E 108°12'0 0.0
2015-Aug-02 00:33N 16°10' E 108°12'0 0.1
2015-Aug-01 23:33N 16°10' E 108°12'0 0.0
2015-Aug-01 22:33N 16°10' E 108°12'0 0.1
2015-Aug-01 21:33N 16°10' E 108°12'0 0.0
2015-Aug-01 20:33N 16°10' E 108°12'0 0.0
2015-Aug-01 19:33N 16°10' E 108°12'0 0.0
2015-Aug-01 18:33N 16°10' E 108°12'0 0.1
2015-Aug-01 17:33N 16°10' E 108°12'0 0.0
2015-Aug-01 16:21N 16°10' E 108°12'0 0.0
2015-Aug-01 15:27N 16°10' E 108°12'0 0.0
2015-Aug-01 14:27N 16°10' E 108°12'0 0.1
2015-Aug-01 13:15N 16°10' E 108°12'0 0.0
2015-Aug-01 12:33N 16°10' E 108°12'1 1.2
2015-Aug-01 11:33N 16°11' E 108°13'1312.7
2015-Aug-01 10:33N 16°19' E 108°23'48317.9
2015-Jul-31 07:31N 22°04' E 114°22'1714.6
2015-Jul-31 06:23N 22°14' E 114°08'1111.1
2015-Jul-31 05:25N 22°21' E 113°59'8 9.7
2015-Jul-31 04:33N 22°28' E 113°54'0 0.2
2015-Jul-31 03:31N 22°28' E 113°54'0 0.0
2015-Jul-31 02:31N 22°28' E 113°54'0 0.0
2015-Jul-31 01:31N 22°28' E 113°54'0 0.0
2015-Jul-31 00:31N 22°28' E 113°54'0 0.0
2015-Jul-30 23:31N 22°28' E 113°54'0 0.0
2015-Jul-30 22:25N 22°28' E 113°54'0 0.0
2015-Jul-30 21:31N 22°28' E 113°54'0 0.0
2015-Jul-30 20:19N 22°28' E 113°54'0 0.0
2015-Jul-30 19:31N 22°28' E 113°54'0 0.0
2015-Jul-30 18:25N 22°28' E 113°54'0 0.0
2015-Jul-30 17:31N 22°28' E 113°54'0 0.0
2015-Jul-30 16:31N 22°28' E 113°54'0 0.0
2015-Jul-30 15:31N 22°28' E 113°54'4 3.9
2015-Jul-30 14:33N 22°24' E 113°54'12 5.7
2015-Jul-30 12:31N 22°18' E 114°05'0 0.1
2015-Jul-30 11:31N 22°18' E 114°05'0 0.1
2015-Jul-30 10:28N 22°18' E 114°05'0 0.1
2015-Jul-30 09:28N 22°18' E 114°05'0 0.0
2015-Jul-30 08:31N 22°18' E 114°05'0 0.0
2015-Jul-30 07:22N 22°18' E 114°05'0 0.0
2015-Jul-30 06:31N 22°18' E 114°05'0 0.0
2015-Jul-30 05:28N 22°18' E 114°05'0 0.0
2015-Jul-30 04:31N 22°18' E 114°05'0 0.0
2015-Jul-30 03:31N 22°18' E 114°05'0 0.0
2015-Jul-30 02:28N 22°18' E 114°05'1 1.3
2015-Jul-30 01:33N 22°19' E 114°06'2 1.9
2015-Jul-30 00:24N 22°20' E 114°08'0 0.0
2015-Jul-29 23:21N 22°20' E 114°08'0 0.0
2015-Jul-29 22:33N 22°20' E 114°08'0 0.0
2015-Jul-29 21:33N 22°20' E 114°08'0 0.0
2015-Jul-29 20:33N 22°20' E 114°08'0 0.0
2015-Jul-29 19:27N 22°20' E 114°08'0 0.0
2015-Jul-29 18:33N 22°20' E 114°08'0 0.0
2015-Jul-29 17:33N 22°20' E 114°08'0 0.0
2015-Jul-29 16:33N 22°20' E 114°08'0 0.0
2015-Jul-29 15:24N 22°20' E 114°08'0 0.0
2015-Jul-29 14:27N 22°20' E 114°08'0 0.0
2015-Jul-29 13:30N 22°20' E 114°08'0 0.0
2015-Jul-29 12:30N 22°20' E 114°08'0 0.0
2015-Jul-29 11:27N 22°20' E 114°08'0 0.0
2015-Jul-29 10:30N 22°20' E 114°08'0 0.0
2015-Jul-29 09:32N 22°20' E 114°08'3 2.6
2015-Jul-29 08:34N 22°18' E 114°06'12 9.5
2015-Jul-29 07:15N 22°09' E 114°15'8 9.8
2015-Jul-29 06:25N 22°10' E 114°23'14 4.5
2015-Jul-29 03:21N 22°19' E 114°34'0 0.0
2015-Jul-29 02:33N 22°19' E 114°34'0 0.0
2015-Jul-28 21:24N 22°19' E 114°34'137 9.8
2015-Jul-28 07:24N 22°52' E 116°59'1516.8
2015-Jul-28 06:30N 22°58' E 117°14'5617.1
2015-Jul-28 03:15N 23°28' E 118°05'1416.8
2015-Jul-28 02:26N 23°37' E 118°16'1516.8
2015-Jul-28 01:33N 23°47' E 118°28'1716.3
2015-Jul-28 00:31N 23°59' E 118°40'1615.9
2015-Jul-27 23:31N 24°11' E 118°52'1515.4
2015-Jul-27 22:33N 24°21' E 119°04'1614.9
2015-Jul-27 21:31N 24°33' E 119°15'1414.9
2015-Jul-27 20:34N 24°43' E 119°26'1914.7
2015-Jul-27 19:18N 24°57' E 119°40'1214.7
2015-Jul-27 18:29N 25°05' E 119°49'1615.1
2015-Jul-27 17:24N 25°18' E 120°01'26715.4
2015-Jul-27 00:05N 29°07' E 122°36'2415.0
2015-Jul-26 22:28N 29°29' E 122°47'1515.2
2015-Jul-26 21:28N 29°43' E 122°53'1415.0
2015-Jul-26 20:33N 29°55' E 122°60'1615.5
2015-Jul-26 19:30N 30°11' E 123°06'1515.6
2015-Jul-26 18:33N 30°24' E 123°14'1616.4
2015-Jul-26 17:33N 30°39' E 123°21'1616.2
2015-Jul-26 16:33N 30°55' E 123°23'1716.8
2015-Jul-26 15:34N 31°12' E 123°21'1716.6
2015-Jul-26 14:33N 31°28' E 123°20'1615.7
2015-Jul-26 13:33N 31°44' E 123°15'1615.9
2015-Jul-26 12:33N 31°59' E 123°12'1715.7
2015-Jul-26 11:29N 32°16' E 123°09'1615.4
2015-Jul-26 10:28N 32°31' E 123°06'1415.4
2015-Jul-26 09:34N 32°45' E 123°02'1615.6
2015-Jul-26 08:33N 33°01' E 122°59'  

Dump ship's entire track history